createdAt,value
2022-08-05T00:01:20.821Z,24.35
2022-08-05T00:04:16.117Z,24.27
2022-08-05T00:07:27.183Z,24.10
2022-08-05T00:10:14.371Z,24.09
2022-08-05T00:13:04.346Z,24.00
2022-08-05T00:15:55.110Z,23.90
2022-08-05T00:18:48.158Z,23.89
2022-08-05T00:21:37.299Z,23.82
2022-08-05T00:24:30.914Z,23.69
2022-08-05T00:27:20.028Z,23.76
2022-08-05T00:30:18.532Z,23.81
2022-08-05T00:34:55.195Z,23.77
2022-08-05T00:37:09.985Z,23.76
2022-08-05T00:39:41.647Z,23.74
2022-08-05T00:42:43.112Z,23.78
2022-08-05T00:45:43.936Z,23.77
2022-08-05T00:48:32.625Z,23.75
2022-08-05T00:51:51.893Z,23.77
2022-08-05T00:54:31.271Z,23.83
2022-08-05T00:57:21.268Z,23.88
2022-08-05T01:00:11.687Z,23.92
2022-08-05T01:03:03.382Z,23.87
2022-08-05T01:05:56.660Z,23.83
2022-08-05T01:08:47.410Z,23.77
2022-08-05T01:11:37.663Z,23.81
2022-08-05T01:14:28.716Z,23.83
2022-08-05T01:17:22.762Z,23.81
2022-08-05T01:20:20.836Z,23.66
2022-08-05T01:23:22.757Z,23.61
2022-08-05T01:26:26.705Z,23.39
2022-08-05T01:29:19.088Z,23.27
2022-08-05T01:32:12.726Z,23.27
2022-08-05T01:35:10.949Z,23.28
2022-08-05T01:38:04.882Z,23.23
2022-08-05T01:40:54.104Z,23.06
2022-08-05T01:43:43.229Z,23.20
2022-08-05T01:46:42.376Z,23.20
2022-08-05T01:50:00.183Z,23.18
2022-08-05T01:52:44.408Z,23.26
2022-08-05T01:55:36.285Z,23.18
2022-08-05T01:58:41.008Z,23.22
2022-08-05T02:01:39.755Z,23.27
2022-08-05T02:04:30.154Z,23.26
2022-08-05T02:07:21.946Z,23.18
2022-08-05T02:10:17.200Z,23.28
2022-08-05T02:13:16.553Z,23.37
2022-08-05T02:16:08.896Z,23.35
2022-08-05T02:19:13.073Z,23.30
2022-08-05T02:22:03.908Z,23.37
2022-08-05T02:24:55.154Z,23.39
2022-08-05T02:27:59.363Z,23.39
2022-08-05T02:30:56.703Z,23.44
2022-08-05T02:33:50.230Z,23.34
2022-08-05T02:36:51.810Z,23.22
2022-08-05T02:39:43.262Z,23.28
2022-08-05T02:42:36.745Z,23.31
2022-08-05T02:45:26.663Z,23.32
2022-08-05T02:48:17.417Z,23.26
2022-08-05T02:51:06.903Z,23.36
2022-08-05T02:54:03.342Z,23.24
2022-08-05T02:56:52.855Z,23.33
2022-08-05T02:59:50.231Z,23.43
2022-08-05T03:02:41.279Z,23.28
2022-08-05T03:06:55.567Z,23.24
2022-08-05T03:08:42.555Z,23.05
2022-08-05T03:11:54.363Z,23.15
2022-08-05T03:14:45.977Z,23.19
2022-08-05T03:17:34.911Z,23.15
2022-08-05T03:20:30.552Z,23.28
2022-08-05T03:23:19.137Z,23.10
2022-08-05T03:26:31.500Z,23.29
2022-08-05T03:29:22.452Z,23.36
2022-08-05T03:32:11.800Z,23.47
2022-08-05T03:35:04.451Z,23.25
2022-08-05T03:37:55.103Z,22.65
2022-08-05T03:40:45.084Z,23.46
2022-08-05T03:44:09.335Z,23.50
2022-08-05T03:46:45.831Z,23.58
2022-08-05T03:49:51.242Z,23.62
2022-08-05T03:54:59.184Z,23.59
2022-08-05T03:56:10.586Z,23.59
2022-08-05T03:59:02.666Z,23.40
2022-08-05T04:01:53.235Z,23.14
2022-08-05T04:04:48.351Z,23.41
2022-08-05T04:07:57.574Z,23.32
2022-08-05T04:10:45.985Z,23.36
2022-08-05T04:13:50.213Z,23.31
2022-08-05T04:16:40.120Z,23.26
2022-08-05T04:19:31.722Z,23.16
2022-08-05T04:22:20.524Z,23.19
2022-08-05T04:25:10.975Z,23.27
2022-08-05T04:28:05.507Z,23.18
2022-08-05T04:31:00.996Z,23.22
2022-08-05T04:34:18.481Z,23.13
2022-08-05T04:37:01.101Z,22.87
2022-08-05T04:39:52.976Z,23.05
2022-08-05T04:42:44.212Z,23.08
2022-08-05T04:45:48.592Z,23.00
2022-08-05T04:48:37.801Z,22.88
2022-08-05T04:51:26.330Z,22.73
2022-08-05T04:54:21.816Z,22.74
2022-08-05T04:57:10.772Z,22.71
2022-08-05T04:59:59.611Z,22.54
2022-08-05T05:02:48.207Z,22.91
2022-08-05T05:06:36.643Z,22.92
2022-08-05T05:08:50.107Z,23.04
2022-08-05T05:11:48.505Z,23.13
2022-08-05T05:14:50.709Z,23.19
2022-08-05T05:17:57.194Z,23.16
2022-08-05T05:20:47.033Z,23.43
2022-08-05T05:23:39.219Z,23.63
2022-08-05T05:26:48.250Z,23.76
2022-08-05T05:30:03.285Z,23.82
2022-08-05T05:32:49.216Z,23.85
2022-08-05T05:35:42.565Z,23.90
2022-08-05T05:38:31.272Z,24.00
2022-08-05T05:41:20.216Z,24.20
2022-08-05T05:44:35.706Z,24.31
2022-08-05T05:47:22.176Z,24.25
2022-08-05T05:50:16.340Z,24.23
2022-08-05T05:53:22.571Z,24.03
2022-08-05T05:56:11.495Z,24.12
2022-08-05T05:59:03.156Z,24.06
2022-08-05T06:01:57.716Z,24.05
2022-08-05T06:04:49.144Z,24.04
2022-08-05T06:07:42.176Z,24.01
2022-08-05T06:10:37.360Z,24.11
2022-08-05T06:13:40.747Z,24.18
2022-08-05T06:16:38.881Z,24.19
2022-08-05T06:19:35.459Z,24.21
2022-08-05T06:22:25.678Z,24.14
2022-08-05T06:25:24.995Z,23.97
2022-08-05T06:28:23.280Z,24.30
2022-08-05T06:31:17.704Z,24.28
2022-08-05T06:34:08.893Z,24.40
2022-08-05T06:36:59.053Z,24.49
2022-08-05T06:39:47.640Z,24.52
2022-08-05T06:42:37.571Z,24.72
2022-08-05T06:45:44.822Z,24.92
2022-08-05T06:48:55.770Z,25.15
2022-08-05T06:51:45.413Z,25.38
2022-08-05T06:54:35.950Z,25.71
2022-08-05T06:58:03.356Z,25.88
2022-08-05T07:00:33.797Z,26.14
2022-08-05T07:03:28.006Z,26.51
2022-08-05T07:06:22.757Z,26.80
2022-08-05T07:09:11.325Z,27.06
2022-08-05T07:12:03.981Z,27.32
2022-08-05T07:15:10.740Z,27.40
2022-08-05T07:18:08.686Z,27.90
2022-08-05T07:20:58.812Z,27.33
2022-08-05T07:23:54.193Z,28.43
2022-08-05T07:26:43.103Z,28.63
2022-08-05T07:30:24.670Z,28.79
2022-08-05T07:32:41.700Z,28.70
2022-08-05T07:36:01.876Z,29.30
2022-08-05T07:38:43.208Z,29.51
2022-08-05T07:42:14.526Z,29.58
2022-08-05T07:44:43.090Z,29.46
2022-08-05T07:47:42.222Z,29.43
2022-08-05T07:50:32.534Z,29.31
2022-08-05T07:53:22.206Z,29.42
2022-08-05T07:57:02.642Z,29.69
2022-08-05T07:59:38.341Z,29.94
2022-08-05T08:03:13.296Z,30.31
2022-08-05T08:05:39.543Z,30.37
2022-08-05T08:08:28.768Z,30.40
2022-08-05T08:11:17.350Z,30.47
2022-08-05T08:14:18.321Z,30.18
2022-08-05T08:17:10.616Z,30.09
2022-08-05T08:20:21.752Z,30.31
2022-08-05T08:24:01.043Z,30.48
2022-08-05T08:26:26.829Z,30.84
2022-08-05T08:30:03.101Z,30.90
2022-08-05T08:32:28.421Z,30.83
2022-08-05T08:35:18.527Z,31.05
2022-08-05T08:38:07.868Z,31.32
2022-08-05T08:40:56.566Z,31.36
2022-08-05T08:45:19.057Z,31.55
2022-08-05T08:46:54.777Z,31.79
2022-08-05T08:50:23.287Z,32.01
2022-08-05T08:53:02.733Z,32.07
2022-08-05T08:56:04.574Z,32.01
2022-08-05T08:58:54.466Z,32.36
2022-08-05T09:01:43.750Z,32.49
2022-08-05T09:04:58.271Z,32.51
2022-08-05T09:07:59.060Z,32.30
2022-08-05T09:10:47.961Z,32.40
2022-08-05T09:14:00.863Z,32.07
2022-08-05T09:16:49.019Z,31.98
2022-08-05T09:20:01.982Z,32.18
2022-08-05T09:23:19.122Z,32.50
2022-08-05T09:26:10.824Z,32.44
2022-08-05T09:29:09.968Z,32.68
2022-08-05T09:32:41.032Z,32.74
2022-08-05T09:35:26.433Z,32.86
2022-08-05T09:38:27.257Z,33.12
2022-08-05T09:41:16.352Z,33.15
2022-08-05T09:44:05.183Z,33.11
2022-08-05T09:47:10.483Z,33.22
2022-08-05T09:50:03.392Z,33.36
2022-08-05T09:52:58.797Z,33.38
2022-08-05T09:55:57.053Z,33.64
2022-08-05T09:58:59.440Z,33.72
2022-08-05T10:01:48.062Z,33.75
2022-08-05T10:04:48.244Z,33.94
2022-08-05T10:07:50.508Z,33.83
2022-08-05T10:10:58.616Z,33.77
2022-08-05T10:13:48.417Z,33.78
2022-08-05T10:16:52.357Z,33.63
2022-08-05T10:20:03.033Z,33.55
2022-08-05T10:22:51.571Z,33.75
2022-08-05T10:25:40.640Z,33.65
2022-08-05T10:28:32.902Z,33.68
2022-08-05T10:32:55.537Z,33.88
2022-08-05T10:34:33.834Z,33.92
2022-08-05T10:37:22.485Z,33.95
2022-08-05T10:40:28.023Z,33.95
2022-08-05T10:43:30.967Z,33.81
2022-08-05T10:46:43.305Z,33.91
2022-08-05T10:49:33.501Z,33.95
2022-08-05T10:52:49.604Z,33.71
2022-08-05T10:56:05.195Z,33.59
2022-08-05T10:59:12.537Z,33.66
2022-08-05T11:02:34.628Z,33.70
2022-08-05T11:05:27.495Z,33.73
2022-08-05T11:08:36.648Z,33.94
2022-08-05T11:11:44.454Z,34.00
2022-08-05T11:15:11.844Z,33.91
2022-08-05T11:18:00.280Z,34.18
2022-08-05T11:20:52.849Z,34.35
2022-08-05T11:24:04.472Z,34.37
2022-08-05T11:27:50.167Z,34.37
2022-08-05T11:31:12.733Z,34.26
2022-08-05T11:34:37.158Z,34.08
2022-08-05T11:38:30.407Z,33.76
2022-08-05T11:41:36.879Z,34.06
2022-08-05T11:44:40.634Z,34.17
2022-08-05T11:47:49.010Z,34.36
2022-08-05T11:50:41.815Z,34.31
2022-08-05T11:53:33.751Z,34.23
2022-08-05T11:56:44.681Z,34.43
2022-08-05T11:59:50.076Z,34.31
2022-08-05T12:02:40.143Z,34.52
2022-08-05T12:05:36.535Z,34.69
2022-08-05T12:08:31.422Z,34.66
2022-08-05T12:11:23.462Z,34.68
2022-08-05T12:14:17.090Z,34.95
2022-08-05T12:17:14.565Z,34.84
2022-08-05T12:20:28.767Z,34.78
2022-08-05T12:23:21.873Z,34.91
2022-08-05T12:26:11.784Z,34.79
2022-08-05T12:29:01.450Z,34.19
2022-08-05T12:31:54.541Z,34.20
2022-08-05T12:34:44.417Z,34.46
2022-08-05T12:37:33.202Z,34.36
2022-08-05T12:40:26.876Z,34.64
2022-08-05T12:43:20.804Z,34.37
2022-08-05T12:46:26.431Z,34.28
2022-08-05T12:49:19.040Z,34.31
2022-08-05T12:52:23.895Z,34.26
2022-08-05T12:55:21.967Z,34.24
2022-08-05T12:58:51.273Z,33.99
2022-08-05T13:02:04.060Z,33.80
2022-08-05T13:04:54.481Z,33.39
2022-08-05T13:08:01.671Z,32.64
2022-08-05T13:10:50.952Z,32.69
2022-08-05T13:14:06.742Z,32.42
2022-08-05T13:16:51.201Z,32.36
2022-08-05T13:19:52.899Z,32.32
2022-08-05T13:22:44.305Z,32.39
2022-08-05T13:25:52.343Z,32.38
2022-08-05T13:28:44.137Z,32.26
2022-08-05T13:31:33.895Z,32.08
2022-08-05T13:34:41.358Z,32.28
2022-08-05T13:37:34.985Z,32.44
2022-08-05T13:40:36.953Z,32.02
2022-08-05T13:43:44.591Z,32.10
2022-08-05T13:46:50.642Z,32.16
2022-08-05T13:49:46.458Z,32.16
2022-08-05T13:52:39.366Z,31.76
2022-08-05T13:55:41.990Z,31.76
2022-08-05T13:58:38.279Z,31.68
2022-08-05T14:01:36.294Z,31.72
2022-08-05T14:04:54.076Z,31.43
2022-08-05T14:08:00.645Z,31.65
2022-08-05T14:10:52.655Z,31.61
2022-08-05T14:13:48.527Z,31.23
2022-08-05T14:16:43.403Z,31.06
2022-08-05T14:19:55.126Z,30.86
2022-08-05T14:22:50.242Z,30.69
2022-08-05T14:25:44.977Z,30.86
2022-08-05T14:28:34.003Z,30.97
2022-08-05T14:31:54.624Z,30.49
2022-08-05T14:34:35.260Z,30.56
2022-08-05T14:37:44.691Z,30.66
2022-08-05T14:40:34.345Z,30.71
2022-08-05T14:43:22.892Z,30.59
2022-08-05T14:46:31.971Z,30.60
2022-08-05T14:49:23.774Z,30.51
2022-08-05T14:52:52.045Z,30.56
2022-08-05T14:55:41.689Z,30.63
2022-08-05T14:58:30.358Z,28.57
2022-08-05T15:01:24.230Z,30.54
2022-08-05T15:04:29.195Z,30.50
2022-08-05T15:08:08.693Z,30.53
2022-08-05T15:10:28.863Z,30.60
2022-08-05T15:13:17.606Z,30.66
2022-08-05T15:16:07.455Z,30.52
2022-08-05T15:19:01.646Z,30.54
2022-08-05T15:21:50.205Z,30.56
2022-08-05T15:24:39.714Z,30.51
2022-08-05T15:27:32.053Z,30.45
2022-08-05T15:30:24.470Z,30.34
2022-08-05T15:34:05.886Z,30.14
2022-08-05T15:36:24.558Z,29.99
2022-08-05T15:41:00.213Z,29.91
2022-08-05T15:42:56.682Z,29.77
2022-08-05T15:45:38.260Z,29.75
2022-08-05T15:48:27.589Z,29.75
2022-08-05T15:51:16.257Z,29.58
2022-08-05T15:54:08.185Z,29.56
2022-08-05T15:56:57.065Z,29.51
2022-08-05T15:59:45.608Z,29.55
2022-08-05T16:02:35.984Z,29.52
2022-08-05T16:05:28.519Z,29.57
2022-08-05T16:08:17.210Z,29.48
2022-08-05T16:11:08.225Z,28.65
2022-08-05T16:13:56.774Z,29.39
2022-08-05T16:16:46.020Z,29.35
2022-08-05T16:20:03.359Z,29.36
2022-08-05T16:22:44.670Z,28.94
2022-08-05T16:25:34.108Z,29.00
2022-08-05T16:28:24.767Z,28.56
2022-08-05T16:31:16.289Z,28.56
2022-08-05T16:34:04.893Z,28.59
2022-08-05T16:36:56.192Z,28.48
2022-08-05T16:40:04.808Z,28.11
2022-08-05T16:42:53.844Z,27.77
2022-08-05T16:46:05.929Z,27.65
2022-08-05T16:48:51.082Z,27.52
2022-08-05T16:51:42.816Z,27.60
2022-08-05T16:54:40.883Z,27.38
2022-08-05T16:57:53.371Z,27.16
2022-08-05T17:00:38.814Z,26.95
2022-08-05T17:03:28.599Z,27.05
2022-08-05T17:06:19.780Z,26.84
2022-08-05T17:09:08.371Z,26.56
2022-08-05T17:11:59.910Z,26.28
2022-08-05T17:14:48.839Z,26.18
2022-08-05T17:17:42.035Z,26.07
2022-08-05T17:20:31.432Z,25.73
2022-08-05T17:24:05.254Z,25.73
2022-08-05T17:26:28.804Z,26.02
2022-08-05T17:29:22.264Z,25.94
2022-08-05T17:32:17.170Z,25.86
2022-08-05T17:35:07.493Z,25.84
2022-08-05T17:38:00.735Z,25.68
2022-08-05T17:40:53.661Z,25.75
2022-08-05T17:43:46.783Z,25.62
2022-08-05T17:46:37.478Z,25.50
2022-08-05T17:49:27.021Z,25.36
2022-08-05T17:52:53.068Z,25.55
2022-08-05T17:55:43.680Z,25.57
2022-08-05T17:58:35.368Z,25.62
2022-08-05T18:01:08.029Z,25.50
2022-08-05T18:03:59.534Z,25.50
2022-08-05T18:06:29.246Z,25.55
2022-08-05T18:08:57.623Z,25.54
2022-08-05T18:11:32.417Z,25.34
2022-08-05T18:14:04.391Z,25.18
2022-08-05T18:16:34.971Z,25.07
2022-08-05T18:19:16.549Z,24.77
2022-08-05T18:22:08.499Z,24.66
2022-08-05T18:24:33.038Z,24.75
2022-08-05T18:27:01.512Z,24.68
2022-08-05T18:29:40.502Z,24.84
2022-08-05T18:32:12.956Z,24.80
2022-08-05T18:34:43.269Z,24.80
2022-08-05T18:37:12.023Z,24.22
2022-08-05T18:40:31.826Z,24.37
2022-08-05T18:42:29.824Z,24.25
2022-08-05T18:44:58.630Z,24.24
2022-08-05T18:47:28.611Z,24.28
2022-08-05T18:50:18.299Z,24.18
2022-08-05T18:52:50.813Z,24.26
2022-08-05T18:55:21.479Z,24.19
2022-08-05T18:58:10.335Z,23.94
2022-08-05T19:01:05.473Z,24.13
2022-08-05T19:03:55.425Z,24.09
2022-08-05T19:06:46.677Z,24.10
2022-08-05T19:09:39.399Z,23.95
2022-08-05T19:12:29.725Z,24.05
2022-08-05T19:15:57.059Z,24.06
2022-08-05T19:18:26.760Z,24.09
2022-08-05T19:21:16.233Z,24.09
2022-08-05T19:24:12.655Z,23.99
2022-08-05T19:27:04.149Z,23.67
2022-08-05T19:29:52.995Z,23.90
2022-08-05T19:32:41.612Z,23.75
2022-08-05T19:35:56.145Z,23.75
2022-08-05T19:38:39.137Z,23.79
2022-08-05T19:42:05.330Z,23.66
2022-08-05T19:44:45.305Z,23.66
2022-08-05T19:47:37.282Z,23.61
2022-08-05T19:50:26.645Z,23.67
2022-08-05T19:53:15.287Z,23.61
2022-08-05T19:56:15.399Z,23.58
2022-08-05T19:59:51.484Z,23.61
2022-08-05T20:02:25.907Z,23.64
2022-08-05T20:05:16.647Z,23.74
2022-08-05T20:08:12.901Z,23.71
2022-08-05T20:11:02.969Z,23.64
2022-08-05T20:13:58.525Z,23.63
2022-08-05T20:17:04.797Z,23.60
2022-08-05T20:19:57.566Z,23.61
2022-08-05T20:22:46.860Z,23.57
2022-08-05T20:25:39.954Z,23.54
2022-08-05T20:28:28.875Z,23.47
2022-08-05T20:31:17.538Z,23.56
2022-08-05T20:34:12.482Z,23.56
2022-08-05T20:37:01.817Z,23.64
2022-08-05T20:39:51.657Z,23.54
2022-08-05T20:42:40.508Z,23.77
2022-08-05T20:45:56.006Z,23.71
2022-08-05T20:48:40.844Z,23.59
2022-08-05T20:51:32.123Z,23.60
2022-08-05T20:54:20.672Z,23.58
2022-08-05T20:57:09.386Z,23.62
2022-08-05T21:00:21.112Z,23.60
2022-08-05T21:03:11.781Z,23.67
2022-08-05T21:06:05.532Z,23.64
2022-08-05T21:09:15.919Z,23.43
2022-08-05T21:12:09.901Z,23.59
2022-08-05T21:14:59.876Z,23.58
2022-08-05T21:17:48.407Z,23.51
2022-08-05T21:20:39.252Z,23.23
2022-08-05T21:23:28.385Z,23.14
2022-08-05T21:26:29.495Z,23.29
2022-08-05T21:29:19.049Z,23.19
2022-08-05T21:32:19.753Z,23.16
2022-08-05T21:35:29.514Z,23.24
2022-08-05T21:38:17.999Z,23.16
2022-08-05T21:41:07.716Z,23.04
2022-08-05T21:44:01.721Z,22.97
2022-08-05T21:46:53.208Z,22.71
2022-08-05T21:49:59.336Z,22.96
2022-08-05T21:52:49.110Z,22.89
2022-08-05T21:56:04.249Z,23.04
2022-08-05T21:58:57.166Z,23.14
2022-08-05T22:01:47.904Z,23.20
2022-08-05T22:04:38.877Z,23.19
2022-08-05T22:07:39.434Z,23.14
2022-08-05T22:10:36.039Z,23.02
2022-08-05T22:14:32.384Z,23.06
2022-08-05T22:16:41.827Z,23.07
2022-08-05T22:20:01.375Z,23.03
2022-08-05T22:23:16.910Z,23.03
2022-08-05T22:26:23.534Z,23.01
2022-08-05T22:29:12.813Z,23.02
2022-08-05T22:32:03.586Z,23.08
2022-08-05T22:34:53.572Z,22.15
2022-08-05T22:37:58.717Z,23.02
2022-08-05T22:40:49.532Z,23.02
2022-08-05T22:43:40.536Z,22.87
2022-08-05T22:46:29.122Z,22.85
2022-08-05T22:50:17.673Z,22.94
2022-08-05T22:52:32.278Z,22.95
2022-08-05T22:55:23.762Z,22.95
2022-08-05T22:58:14.707Z,22.90
2022-08-05T23:01:03.298Z,22.78
2022-08-05T23:03:57.921Z,22.73
2022-08-05T23:06:48.084Z,22.75
2022-08-05T23:09:57.332Z,22.74
2022-08-05T23:12:46.483Z,22.79
2022-08-05T23:15:36.451Z,22.74
2022-08-05T23:18:25.012Z,22.89
2022-08-05T23:21:16.507Z,22.78
2022-08-05T23:24:11.186Z,22.77
2022-08-05T23:27:01.516Z,22.81
2022-08-05T23:29:50.662Z,22.90
2022-08-05T23:32:40.762Z,22.82
2022-08-05T23:35:34.454Z,22.86
2022-08-05T23:38:23.310Z,22.74
2022-08-05T23:41:12.961Z,22.57
2022-08-05T23:44:06.362Z,22.66
2022-08-05T23:46:57.265Z,22.58
2022-08-05T23:49:46.061Z,22.54
2022-08-05T23:52:35.983Z,22.30
2022-08-05T23:55:37.920Z,22.43
2022-08-05T23:58:32.084Z,22.47
